Hollister, Missouri
Current Conditions -  °F | °C
As of 9:45 AM on Monday 24 Nov 2014 (Local Time) from KBBG Reporting Station
Clear Clear  
Wind Chill: 39°   Ceiling: Unl
Heat Index: 45°   Visibility: 10mi
Dew Point: 28°   Wind: 12mph
Humidity: 53%   Direction: 270°W
Pressure: 29.81"   Gusts: 18mph
Location:  36.62°N, 93.22°W
Report Text: KBBG 241545Z 27010G16KT 220V330 10SM CLR 07/M02 A2981
Loading
Personal Weather Stations






























Interactive Weather Map New forecast layout! Learn more

10-Day Weather Forecast

Advertisements
Track Severe Weather on mobile